Time;durP1;ratioP1;P1;durP2;ratioP2;P2;SDS_P1;SDS_P2;PMS_P1;PMS_P2;Temp;Humidity;BMP_temperature;BMP_pressure;BME280_temperature;BME280_humidity;BME280_pressure;Samples;Min_cycle;Max_cycle;Signal;HPM_P1;HPM_P2
2022/01/23 00:00:19;;;;;;;26.98;15.90;;;5.70;99.90;;;;;;4938821;29;20086;-75
2022/01/23 00:02:47;;;;;;;33.75;16.52;;;5.60;99.90;;;;;;4955871;28;20435;-75
2022/01/23 00:05:14;;;;;;;24.48;14.80;;;5.60;99.90;;;;;;4955831;29;20034;-75
2022/01/23 00:07:41;;;;;;;26.25;15.73;;;5.70;99.90;;;;;;4955221;29;20536;-75
2022/01/23 00:10:09;;;;;;;30.30;17.30;;;5.70;99.90;;;;;;4955369;29;20019;-75
2022/01/23 00:12:42;;;;;;;31.92;17.58;;;5.60;99.90;;;;;;4955894;29;20031;-75
2022/01/23 00:17:53;;;;;;;27.30;15.35;;;5.70;99.90;;;;;;4955596;29;20050;-75
2022/01/23 00:20:19;;;;;;;33.05;19.00;;;5.60;99.90;;;;;;4955407;29;20394;-75
2022/01/23 00:22:48;;;;;;;31.23;16.45;;;5.70;99.90;;;;;;4955349;29;20176;-75
2022/01/23 00:30:45;;;;;;;36.67;18.17;;;5.70;99.90;;;;;;4955221;29;20038;-75
2022/01/23 00:33:12;;;;;;;32.92;17.55;;;5.70;99.90;;;;;;4955171;29;20023;-75
2022/01/23 00:35:42;;;;;;;30.60;18.23;;;5.70;99.90;;;;;;4955298;29;20051;-75
2022/01/23 00:38:09;;;;;;;36.17;17.98;;;5.70;99.90;;;;;;4955201;29;20050;-75
2022/01/23 00:40:37;;;;;;;33.53;17.88;;;5.70;99.90;;;;;;4955058;29;20035;-75
2022/01/23 00:43:13;;;;;;;36.08;17.85;;;5.60;99.90;;;;;;4955142;29;20077;-75
2022/01/23 00:45:46;;;;;;;32.67;18.17;;;5.60;99.90;;;;;;4955062;29;20034;-75
2022/01/23 00:48:13;;;;;;;30.42;18.00;;;5.70;99.90;;;;;;4955352;29;20486;-75
2022/01/23 00:50:42;;;;;;;36.67;19.48;;;5.80;99.90;;;;;;4954937;28;20069;-75
2022/01/23 00:53:10;;;;;;;31.33;17.08;;;5.80;99.90;;;;;;4958644;29;20482;-75
2022/01/23 00:55:45;;;;;;;32.17;17.27;;;5.60;99.90;;;;;;4958996;29;20035;-75
2022/01/23 00:58:11;;;;;;;31.40;18.33;;;5.60;99.90;;;;;;4958923;29;20521;-75
2022/01/23 01:00:38;;;;;;;34.47;18.20;;;5.60;99.90;;;;;;4959170;29;20053;-75
2022/01/23 01:03:05;;;;;;;33.50;18.60;;;5.60;99.90;;;;;;4958753;28;20033;-74
2022/01/23 01:05:31;;;;;;;32.10;18.73;;;5.50;99.90;;;;;;4959089;29;20396;-75
2022/01/23 01:07:59;;;;;;;37.13;19.38;;;5.50;99.90;;;;;;4958371;29;20055;-75
2022/01/23 01:10:33;;;;;;;32.83;17.30;;;5.40;99.90;;;;;;4958614;29;20117;-75
2022/01/23 01:13:01;;;;;;;35.92;18.05;;;5.40;99.90;;;;;;4958713;29;20061;-75
2022/01/23 01:33:57;;;;;;;35.13;18.95;;;5.40;99.90;;;;;;4958295;29;20023;-75
2022/01/23 01:38:49;;;;;;;33.97;18.40;;;5.40;99.90;;;;;;4958421;29;20466;-75
2022/01/23 01:41:18;;;;;;;32.78;19.65;;;5.30;99.90;;;;;;4940982;29;20118;-75
2022/01/23 01:43:44;;;;;;;34.22;19.80;;;5.30;99.90;;;;;;4958138;29;20024;-75
2022/01/23 01:46:10;;;;;;;36.90;19.65;;;5.30;99.90;;;;;;4957983;29;20035;-75
2022/01/23 01:48:36;;;;;;;35.70;20.02;;;5.40;99.90;;;;;;4958037;29;20034;-75
2022/01/23 01:51:05;;;;;;;34.00;18.63;;;5.40;99.90;;;;;;4958131;29;20382;-75
2022/01/23 01:53:30;;;;;;;37.17;20.50;;;5.50;99.90;;;;;;4957948;29;20015;-75
2022/01/23 01:55:57;;;;;;;33.90;18.98;;;5.40;99.90;;;;;;4958153;29;20489;-75
2022/01/23 02:09:16;;;;;;;34.13;18.63;;;5.20;99.90;;;;;;4957653;29;20038;-76
2022/01/23 02:55:28;;;;;;;40.10;19.45;;;5.20;99.90;;;;;;4956872;29;20070;-75
2022/01/23 02:58:00;;;;;;;41.13;23.05;;;5.30;99.90;;;;;;4957023;29;20023;-75
2022/01/23 03:00:34;;;;;;;53.72;31.58;;;5.10;99.90;;;;;;4939150;29;20034;-75
2022/01/23 03:03:09;;;;;;;46.67;25.88;;;5.20;99.90;;;;;;4939223;29;20055;-75
2022/01/23 03:05:38;;;;;;;53.58;31.23;;;5.20;99.90;;;;;;4955200;29;20039;-75
2022/01/23 03:10:41;;;;;;;39.85;24.35;;;5.30;99.90;;;;;;4956510;29;20050;-75
2022/01/23 03:16:00;;;;;;;39.42;22.73;;;5.20;99.90;;;;;;4955855;28;20274;-75
2022/01/23 03:29:17;;;;;;;35.63;19.63;;;5.10;99.90;;;;;;4956542;29;20549;-75
2022/01/23 03:32:19;;;;;;;34.03;18.52;;;5.10;99.90;;;;;;4956242;29;20494;-75
2022/01/23 03:34:29;;;;;;;40.75;19.80;;;5.10;99.90;;;;;;4955596;29;20043;-75
2022/01/23 03:36:56;;;;;;;34.80;19.25;;;5.20;99.90;;;;;;4956362;29;20094;-74
2022/01/23 03:39:23;;;;;;;35.88;18.90;;;5.30;99.90;;;;;;4956078;29;20027;-75
2022/01/23 03:41:48;;;;;;;40.25;19.60;;;5.20;99.90;;;;;;4938801;29;20026;-75
2022/01/23 03:44:16;;;;;;;37.58;20.98;;;5.20;99.90;;;;;;4955966;29;20024;-75
2022/01/23 03:51:56;;;;;;;34.63;19.90;;;5.10;99.90;;;;;;4955598;29;20569;-75
2022/01/23 03:54:23;;;;;;;38.10;19.00;;;5.10;99.90;;;;;;4938559;29;20027;-75
2022/01/23 03:56:49;;;;;;;38.28;18.38;;;5.00;99.90;;;;;;4956043;29;20050;-75
2022/01/23 03:59:15;;;;;;;40.08;19.50;;;5.00;99.90;;;;;;4956015;29;20027;-75
2022/01/23 04:01:40;;;;;;;31.80;17.13;;;4.90;99.90;;;;;;4955959;29;20055;-75
2022/01/23 04:04:17;;;;;;;32.70;18.38;;;5.00;99.90;;;;;;4955563;28;20016;-75
2022/01/23 04:06:43;;;;;;;34.95;18.67;;;5.10;99.90;;;;;;4938033;29;20054;-74
2022/01/23 04:09:10;;;;;;;31.30;16.60;;;5.10;99.90;;;;;;4955594;29;20389;-75
2022/01/23 04:11:36;;;;;;;37.67;18.33;;;5.10;99.90;;;;;;4955852;29;20497;-75
2022/01/23 04:14:06;;;;;;;32.70;18.38;;;5.00;99.90;;;;;;4955483;29;20026;-75
2022/01/23 04:20:19;;;;;;;32.92;18.90;;;5.00;99.90;;;;;;4955717;29;20037;-75
2022/01/23 05:00:23;;;;;;;29.30;16.98;;;5.10;99.90;;;;;;4955333;29;20173;-75
2022/01/23 05:05:35;;;;;;;31.55;17.63;;;4.90;99.90;;;;;;4955277;29;20073;-75
2022/01/23 05:08:05;;;;;;;32.47;16.52;;;4.90;99.90;;;;;;4937267;29;20055;-75
2022/01/23 05:10:31;;;;;;;30.52;15.77;;;4.90;99.90;;;;;;4955308;29;20085;-74
2022/01/23 05:12:56;;;;;;;28.42;15.35;;;4.80;99.90;;;;;;4937634;29;20046;-75
2022/01/23 05:15:22;;;;;;;30.40;15.95;;;4.70;99.90;;;;;;4937645;29;20028;-75
2022/01/23 05:17:48;;;;;;;30.80;16.45;;;4.70;99.90;;;;;;4954828;29;20027;-75
2022/01/23 05:20:15;;;;;;;34.13;16.17;;;4.70;99.90;;;;;;4955032;29;20038;-75
2022/01/23 05:22:46;;;;;;;34.22;17.67;;;4.80;99.90;;;;;;4954796;29;20016;-75
2022/01/23 05:25:20;;;;;;;30.55;16.45;;;4.80;99.90;;;;;;4937407;29;20035;-74
2022/01/23 05:27:50;;;;;;;29.55;16.55;;;4.80;99.90;;;;;;4955302;29;20023;-75
2022/01/23 05:30:16;;;;;;;29.13;16.33;;;4.70;99.90;;;;;;4954726;29;20070;-75
2022/01/23 05:32:43;;;;;;;30.90;16.38;;;4.70;99.90;;;;;;4954975;29;20024;-75
2022/01/23 05:35:12;;;;;;;34.00;15.90;;;4.80;99.90;;;;;;4954667;29;20082;-75
2022/01/23 05:37:38;;;;;;;30.60;16.73;;;4.80;99.90;;;;;;4955678;28;20021;-74
2022/01/23 05:40:06;;;;;;;31.83;17.67;;;4.90;99.90;;;;;;4958487;29;20482;-75
2022/01/23 05:42:32;;;;;;;40.90;18.15;;;4.80;99.90;;;;;;4958784;29;20086;-75
2022/01/23 05:44:58;;;;;;;28.98;16.00;;;4.80;99.90;;;;;;4958169;29;20433;-75
2022/01/23 05:47:23;;;;;;;28.73;16.20;;;4.80;99.90;;;;;;4958137;29;20498;-75
2022/01/23 05:49:49;;;;;;;35.08;16.40;;;4.90;99.90;;;;;;4957994;29;20031;-74
2022/01/23 05:52:15;;;;;;;28.58;15.98;;;4.70;99.90;;;;;;4958079;29;20146;-75
2022/01/23 05:54:41;;;;;;;28.45;16.65;;;4.70;99.90;;;;;;4958543;29;20055;-75
2022/01/23 05:57:07;;;;;;;29.75;17.05;;;4.60;99.90;;;;;;4958236;29;20075;-75
2022/01/23 05:59:33;;;;;;;32.70;17.60;;;4.60;99.90;;;;;;4957888;29;20135;-75
2022/01/23 06:01:58;;;;;;;29.27;16.50;;;4.50;99.90;;;;;;4957833;29;20482;-75
2022/01/23 06:04:25;;;;;;;32.05;16.95;;;4.50;99.90;;;;;;4957803;28;20393;-75
2022/01/23 06:06:53;;;;;;;33.65;17.45;;;4.50;99.90;;;;;;4957577;29;20047;-75
2022/01/23 06:09:20;;;;;;;33.35;16.83;;;4.50;99.90;;;;;;4957653;29;20051;-75
2022/01/23 06:11:46;;;;;;;31.80;16.85;;;4.40;99.90;;;;;;4958170;29;20018;-75
2022/01/23 06:14:12;;;;;;;31.02;18.05;;;4.50;99.90;;;;;;4940396;29;20031;-75
2022/01/23 06:16:39;;;;;;;36.15;18.55;;;4.50;99.90;;;;;;4957549;29;20034;-75
2022/01/23 06:19:06;;;;;;;34.55;17.75;;;4.50;99.90;;;;;;4957525;29;20102;-75
2022/01/23 06:21:32;;;;;;;33.67;18.17;;;4.60;99.90;;;;;;4957585;29;20027;-75
2022/01/23 06:24:06;;;;;;;31.23;17.63;;;4.60;99.90;;;;;;4957453;29;20470;-75
2022/01/23 06:26:50;;;;;;;30.33;16.85;;;4.60;99.90;;;;;;4957496;29;20081;-75
2022/01/23 06:29:18;;;;;;;33.88;16.65;;;4.60;99.90;;;;;;4940120;29;20441;-75
2022/01/23 06:31:46;;;;;;;34.50;18.10;;;4.60;99.90;;;;;;4957610;29;20027;-75
2022/01/23 06:34:13;;;;;;;30.73;16.25;;;4.60;99.90;;;;;;4957300;29;20015;-75
2022/01/23 06:36:38;;;;;;;28.33;16.88;;;4.70;99.90;;;;;;4957225;29;20095;-75
2022/01/23 06:39:08;;;;;;;31.63;17.10;;;4.70;99.90;;;;;;4957181;29;20499;-75
2022/01/23 06:41:34;;;;;;;29.42;17.13;;;4.70;99.90;;;;;;4957181;29;20038;-75
2022/01/23 06:44:01;;;;;;;29.75;17.27;;;4.70;99.90;;;;;;4957359;29;20398;-75
2022/01/23 06:46:26;;;;;;;28.98;16.30;;;4.70;99.90;;;;;;4957056;29;20098;-75
2022/01/23 06:48:52;;;;;;;33.53;18.08;;;4.60;99.90;;;;;;4938841;29;20514;-75
2022/01/23 06:51:18;;;;;;;32.08;16.40;;;4.50;99.90;;;;;;4956831;29;20529;-75
2022/01/23 06:53:44;;;;;;;25.67;14.25;;;4.60;99.90;;;;;;4957217;29;20026;-75
2022/01/23 06:56:09;;;;;;;28.30;15.02;;;4.60;99.90;;;;;;4956959;29;20101;-75
2022/01/23 06:58:35;;;;;;;26.67;15.23;;;4.50;99.90;;;;;;4956883;29;20058;-75
2022/01/23 07:01:01;;;;;;;28.35;14.77;;;4.50;99.90;;;;;;4956468;29;20109;-75
2022/01/23 07:03:27;;;;;;;23.27;14.68;;;4.70;99.90;;;;;;4956710;28;20557;-75
2022/01/23 07:05:52;;;;;;;23.13;13.70;;;4.70;99.90;;;;;;4956537;29;20031;-75
2022/01/23 07:08:18;;;;;;;23.27;13.40;;;4.60;99.90;;;;;;4956625;29;20046;-76
2022/01/23 07:10:44;;;;;;;25.85;13.93;;;4.70;99.90;;;;;;4956562;29;20497;-74
2022/01/23 07:13:09;;;;;;;23.60;13.48;;;4.70;99.90;;;;;;4956574;29;20450;-75
2022/01/23 07:15:35;;;;;;;26.67;14.02;;;4.60;99.90;;;;;;4956852;29;20394;-75
2022/01/23 07:18:01;;;;;;;27.73;15.18;;;4.50;99.90;;;;;;4956501;29;20109;-75
2022/01/23 07:20:26;;;;;;;27.10;13.95;;;4.60;99.90;;;;;;4956707;29;20023;-75
2022/01/23 07:22:52;;;;;;;25.95;13.27;;;4.60;99.90;;;;;;4939209;29;20035;-74
2022/01/23 07:25:18;;;;;;;25.75;14.00;;;4.60;99.90;;;;;;4956311;29;20023;-75
2022/01/23 07:27:51;;;;;;;27.55;14.32;;;4.70;99.90;;;;;;4939501;29;20118;-75
2022/01/23 07:32:51;;;;;;;25.98;15.07;;;4.70;99.90;;;;;;4955938;29;20462;-75
2022/01/23 07:35:17;;;;;;;25.55;15.00;;;4.70;99.90;;;;;;4956130;29;20106;-75
2022/01/23 07:37:43;;;;;;;30.65;15.50;;;4.70;99.90;;;;;;4956326;29;20043;-75
2022/01/23 07:40:09;;;;;;;36.72;15.45;;;4.80;99.90;;;;;;4956027;29;20401;-75
2022/01/23 07:42:35;;;;;;;30.27;15.35;;;4.70;99.90;;;;;;4956028;29;20023;-75
2022/01/23 07:45:02;;;;;;;30.10;15.38;;;4.80;99.90;;;;;;4955993;29;20097;-75
2022/01/23 07:47:28;;;;;;;27.48;15.00;;;4.80;99.90;;;;;;4955861;29;20038;-75
2022/01/23 07:49:54;;;;;;;25.17;14.27;;;4.80;99.90;;;;;;4956113;29;20031;-76
2022/01/23 07:52:19;;;;;;;32.92;17.70;;;4.90;99.90;;;;;;4955896;29;20096;-76
2022/01/23 07:54:45;;;;;;;25.95;14.57;;;4.90;99.90;;;;;;4955820;29;20034;-75
2022/01/23 07:57:11;;;;;;;30.55;15.40;;;4.80;99.90;;;;;;4938556;29;20046;-75
2022/01/23 07:59:37;;;;;;;27.65;15.25;;;4.80;99.90;;;;;;4955759;29;20509;-75
2022/01/23 08:02:03;;;;;;;30.52;16.52;;;4.70;99.90;;;;;;4955658;28;20082;-75
2022/01/23 08:04:29;;;;;;;32.92;17.17;;;4.70;99.90;;;;;;4955531;28;20027;-75
2022/01/23 08:07:20;;;;;;;31.10;17.40;;;4.60;99.90;;;;;;4955706;29;20187;-75
2022/01/23 08:09:46;;;;;;;30.73;15.57;;;4.70;99.90;;;;;;4956050;29;20520;-75
2022/01/23 08:12:12;;;;;;;33.90;15.27;;;4.80;99.90;;;;;;4955523;29;20020;-75
2022/01/23 08:14:37;;;;;;;31.58;16.15;;;4.60;99.90;;;;;;4955799;29;20035;-74
2022/01/23 08:17:03;;;;;;;26.27;14.80;;;4.50;99.90;;;;;;4938256;29;20423;-75
2022/01/23 08:19:29;;;;;;;30.33;15.02;;;4.60;99.90;;;;;;4955936;29;20400;-75
2022/01/23 08:21:54;;;;;;;28.08;14.05;;;4.50;99.90;;;;;;4955649;29;20031;-75
2022/01/23 08:24:20;;;;;;;27.20;14.65;;;4.50;99.90;;;;;;4955650;29;20023;-75
2022/01/23 08:26:46;;;;;;;26.23;15.23;;;4.50;99.90;;;;;;4955630;29;20027;-75
2022/01/23 08:29:11;;;;;;;25.67;14.02;;;4.50;99.90;;;;;;4955592;29;20029;-75
2022/01/23 08:31:37;;;;;;;23.65;13.85;;;4.50;99.90;;;;;;4955777;29;20019;-75
2022/01/23 08:34:03;;;;;;;21.20;13.25;;;4.50;99.90;;;;;;4955279;29;20521;-75
2022/01/23 08:36:29;;;;;;;23.75;13.27;;;4.50;99.90;;;;;;4955229;29;20382;-75
2022/01/23 08:38:58;;;;;;;28.92;17.00;;;4.50;99.90;;;;;;4955496;29;20023;-75
2022/01/23 08:43:51;;;;;;;23.88;14.15;;;4.70;99.90;;;;;;4955153;29;20181;-75
2022/01/23 08:46:17;;;;;;;27.38;16.13;;;4.70;99.90;;;;;;4955381;29;20113;-75
2022/01/23 08:48:43;;;;;;;24.08;12.77;;;4.70;99.90;;;;;;4937873;29;20126;-75
2022/01/23 08:51:10;;;;;;;27.30;13.70;;;4.70;99.90;;;;;;4955291;29;20023;-75
2022/01/23 08:53:37;;;;;;;25.27;13.25;;;4.80;99.90;;;;;;4955021;29;20474;-75
2022/01/23 08:56:03;;;;;;;24.65;12.50;;;4.80;99.90;;;;;;4955003;29;20470;-75
2022/01/23 08:58:29;;;;;;;21.98;13.00;;;4.90;99.90;;;;;;4955016;29;20054;-74
2022/01/23 09:00:55;;;;;;;27.55;13.98;;;4.80;99.90;;;;;;4955209;29;20030;-75
2022/01/23 09:03:21;;;;;;;24.60;13.63;;;4.80;99.90;;;;;;4954894;28;20035;-75
2022/01/23 09:05:46;;;;;;;26.10;13.65;;;4.80;99.90;;;;;;4937584;29;20027;-75
2022/01/23 09:08:12;;;;;;;22.95;12.85;;;4.70;99.90;;;;;;4954492;29;20063;-74
2022/01/23 09:10:51;;;;;;;23.65;12.32;;;4.80;99.90;;;;;;4954807;29;20042;-74
2022/01/23 09:13:53;;;;;;;22.73;12.10;;;4.70;99.90;;;;;;4957330;28;20023;-75
2022/01/23 09:16:17;;;;;;;;;;;4.70;99.90;;;;;;4958754;29;20028;-75
2022/01/23 09:18:43;;;;;;;22.85;12.40;;;4.50;99.90;;;;;;4959190;29;19917;-75
2022/01/23 09:21:08;;;;;;;24.05;12.15;;;4.50;99.90;;;;;;4958602;29;20027;-75
2022/01/23 09:23:34;;;;;;;20.20;11.45;;;4.60;99.90;;;;;;4958846;29;20027;-75
2022/01/23 09:26:08;;;;;;;20.13;11.50;;;4.60;99.90;;;;;;4958833;29;20065;-75
2022/01/23 09:28:34;;;;;;;24.13;12.57;;;4.70;99.90;;;;;;4941017;29;20118;-75
2022/01/23 09:31:01;;;;;;;25.85;13.23;;;4.60;99.90;;;;;;4958388;29;20547;-75
2022/01/23 09:33:27;;;;;;;19.95;12.13;;;4.60;99.90;;;;;;4958416;29;20047;-75
2022/01/23 09:35:53;;;;;;;27.75;13.20;;;4.70;99.90;;;;;;4958396;29;20055;-75
2022/01/23 09:38:19;;;;;;;22.15;13.00;;;4.80;99.90;;;;;;4958354;29;20023;-75
2022/01/23 09:40:49;;;;;;;23.35;13.25;;;4.70;99.90;;;;;;4958545;29;20031;-75
2022/01/23 09:43:20;;;;;;;25.55;13.85;;;4.80;99.90;;;;;;4958528;29;20039;-74
2022/01/23 09:45:49;;;;;;;25.52;13.77;;;4.70;99.90;;;;;;4958163;29;20023;-75
2022/01/23 09:48:16;;;;;;;21.77;12.57;;;4.60;99.90;;;;;;4958143;29;20027;-75
2022/01/23 09:50:44;;;;;;;23.52;12.90;;;4.80;99.90;;;;;;4940912;29;20115;-75
2022/01/23 09:53:12;;;;;;;24.73;14.00;;;4.80;99.90;;;;;;4958023;29;20390;-75
2022/01/23 09:55:49;;;;;;;21.85;12.80;;;4.60;99.90;;;;;;4958033;29;20073;-75
2022/01/23 09:58:15;;;;;;;24.92;13.70;;;4.60;99.90;;;;;;4958626;29;20024;-74
2022/01/23 10:00:41;;;;;;;23.50;12.15;;;4.50;99.90;;;;;;4957913;29;20050;-75
2022/01/23 10:03:07;;;;;;;28.58;13.82;;;4.50;99.90;;;;;;4957808;28;20054;-75
2022/01/23 10:05:33;;;;;;;22.67;13.27;;;4.60;99.90;;;;;;4958109;29;20063;-75
2022/01/23 10:08:00;;;;;;;22.92;12.77;;;4.60;99.90;;;;;;4957451;29;20055;-75
2022/01/23 10:10:31;;;;;;;24.27;13.57;;;4.70;99.90;;;;;;4957709;29;20031;-75
2022/01/23 10:13:00;;;;;;;29.42;15.02;;;4.50;99.90;;;;;;4957740;29;20037;-75
2022/01/23 10:15:30;;;;;;;27.02;13.40;;;4.70;99.90;;;;;;4957682;29;20019;-74
2022/01/23 10:17:57;;;;;;;27.05;14.55;;;4.70;99.90;;;;;;4940186;29;20041;-75
2022/01/23 10:20:24;;;;;;;27.02;13.70;;;4.60;99.90;;;;;;4957548;29;20065;-75
2022/01/23 10:22:52;;;;;;;27.67;14.65;;;4.70;99.90;;;;;;4957514;28;20031;-75
2022/01/23 10:25:25;;;;;;;32.67;16.02;;;4.80;99.90;;;;;;4957661;29;20034;-75
2022/01/23 10:28:03;;;;;;;30.55;15.55;;;4.70;99.90;;;;;;4957748;29;20481;-75
2022/01/23 10:30:42;;;;;;;34.13;18.60;;;4.80;99.90;;;;;;4957622;29;20019;-74
2022/01/23 10:33:16;;;;;;;30.00;15.05;;;4.70;99.90;;;;;;4957928;29;20034;-75
2022/01/23 10:35:57;;;;;;;35.28;19.92;;;4.60;99.90;;;;;;4957564;29;20500;-74
2022/01/23 10:38:26;;;;;;;31.00;16.58;;;4.60;99.90;;;;;;4957220;29;20031;-74
2022/01/23 10:49:51;;;;;;;30.65;16.35;;;4.60;99.90;;;;;;4957230;29;20474;-74
2022/01/23 10:52:34;;;;;;;31.55;17.25;;;4.60;99.90;;;;;;4939521;29;20042;-75
2022/01/23 10:55:03;;;;;;;31.83;15.57;;;4.70;99.90;;;;;;4957520;29;20030;-75
2022/01/23 10:57:38;;;;;;;33.65;17.95;;;4.90;99.90;;;;;;4956883;29;20031;-74
2022/01/23 11:00:06;;;;;;;37.28;16.58;;;4.80;99.90;;;;;;4957143;29;20031;-75
2022/01/23 11:02:32;;;;;;;37.20;17.50;;;4.80;99.90;;;;;;4956971;28;20090;-75
2022/01/23 11:05:03;;;;;;;30.75;16.17;;;5.00;99.90;;;;;;4956729;29;20485;-75
2022/01/23 11:07:31;;;;;;;37.28;16.83;;;5.10;99.90;;;;;;4956460;29;20055;-75
2022/01/23 11:09:59;;;;;;;34.25;16.92;;;5.00;99.90;;;;;;4956487;29;20027;-75
2022/01/23 11:12:43;;;;;;;35.00;17.52;;;4.90;99.90;;;;;;4957095;29;20039;-75
2022/01/23 11:18:02;;;;;;;34.87;17.97;;;5.10;99.90;;;;;;4956312;29;20034;-75
2022/01/23 11:20:49;;;;;;;33.80;17.40;;;5.20;99.90;;;;;;4956714;29;20078;-75
2022/01/23 11:23:20;;;;;;;114.82;51.90;;;5.00;99.90;;;;;;4956556;29;20497;-75
2022/01/23 11:26:10;;;;;;;33.67;17.27;;;5.00;99.90;;;;;;4956556;29;20035;-74
2022/01/23 11:28:44;;;;;;;31.85;16.42;;;4.80;99.90;;;;;;4956237;29;20055;-75
2022/01/23 11:31:21;;;;;;;35.05;19.45;;;4.80;99.90;;;;;;4956543;29;20393;-74
2022/01/23 11:33:48;;;;;;;38.10;18.85;;;4.80;99.90;;;;;;4956701;29;20405;-75
2022/01/23 11:36:15;;;;;;;44.03;21.10;;;4.80;99.90;;;;;;4955943;28;20126;-75
2022/01/23 11:38:44;;;;;;;34.22;17.50;;;4.90;99.90;;;;;;4956118;29;20143;-74
2022/01/23 11:55:27;;;;;;;37.67;17.98;;;5.10;99.90;;;;;;4955630;29;20086;-75
2022/01/23 11:57:53;;;;;;;38.15;19.20;;;5.10;99.90;;;;;;4956390;29;20458;-75
2022/01/23 12:00:37;;;;;;;37.90;19.92;;;5.10;99.90;;;;;;4955752;29;20114;-75
2022/01/23 12:03:05;;;;;;;61.30;31.30;;;5.00;99.90;;;;;;4938249;29;20029;-75
2022/01/23 12:05:31;;;;;;;41.08;22.38;;;4.90;99.90;;;;;;4955947;29;20107;-75
2022/01/23 12:08:16;;;;;;;34.70;18.33;;;5.00;99.90;;;;;;4955243;29;20058;-75
2022/01/23 12:16:54;;;;;;;37.10;18.75;;;5.10;99.90;;;;;;4956102;29;20037;-75
2022/01/23 12:19:22;;;;;;;42.60;21.35;;;5.10;99.90;;;;;;4955720;29;20019;-75
2022/01/23 12:21:52;;;;;;;39.03;20.17;;;5.00;99.90;;;;;;4955235;29;20062;-74
2022/01/23 12:24:19;;;;;;;40.67;19.70;;;4.90;99.90;;;;;;4955431;29;20026;-75
2022/01/23 12:26:46;;;;;;;42.03;21.10;;;4.90;99.90;;;;;;4955641;29;20397;-75
2022/01/23 12:29:14;;;;;;;43.95;22.35;;;5.00;99.90;;;;;;4955324;29;20489;-74
2022/01/23 12:31:41;;;;;;;39.97;21.23;;;5.10;99.90;;;;;;4955480;29;20463;-75
2022/01/23 12:34:07;;;;;;;43.88;23.15;;;5.10;99.90;;;;;;4955211;29;20098;-75
2022/01/23 12:36:37;;;;;;;42.45;21.50;;;5.00;99.90;;;;;;4955546;29;20114;-75
2022/01/23 12:39:09;;;;;;;40.60;21.65;;;4.80;99.90;;;;;;4938027;29;20421;-75
2022/01/23 12:41:40;;;;;;;44.38;21.80;;;5.00;99.90;;;;;;4955431;29;20481;-75
2022/01/23 12:44:05;;;;;;;66.43;31.83;;;5.10;99.90;;;;;;4955372;29;20054;-75
2022/01/23 12:46:32;;;;;;;49.85;23.65;;;5.00;99.90;;;;;;4954647;28;20059;-75
2022/01/23 12:49:17;;;;;;;56.40;28.65;;;5.00;99.90;;;;;;4954716;29;20058;-75
2022/01/23 12:51:44;;;;;;;64.93;32.25;;;5.00;99.90;;;;;;4955592;29;20027;-74
2022/01/23 12:54:14;;;;;;;53.25;23.63;;;5.10;99.90;;;;;;4955058;29;20038;-75
2022/01/23 12:56:45;;;;;;;59.13;30.60;;;5.20;99.90;;;;;;4955051;29;20023;-75
2022/01/23 12:59:20;;;;;;;47.05;24.88;;;5.20;99.90;;;;;;4937577;29;20034;-75
2022/01/23 13:01:47;;;;;;;66.57;28.63;;;5.20;99.90;;;;;;4937543;29;20031;-75
2022/01/23 13:04:15;;;;;;;48.13;24.65;;;5.30;99.90;;;;;;4954957;28;20046;-75
2022/01/23 13:06:50;;;;;;;61.38;33.05;;;5.20;99.90;;;;;;4954729;29;20175;-75
2022/01/23 13:09:26;;;;;;;62.78;33.75;;;5.10;99.90;;;;;;4955187;29;20055;-75
2022/01/23 13:14:48;;;;;;;54.53;27.75;;;5.10;99.90;;;;;;4954620;29;20027;-75
2022/01/23 13:30:56;;;;;;;52.53;26.45;;;5.30;99.90;;;;;;4939314;29;20481;-75
2022/01/23 13:33:25;;;;;;;58.72;29.13;;;5.20;99.90;;;;;;4954786;29;20050;-74
2022/01/23 13:35:52;;;;;;;62.40;30.60;;;5.30;99.90;;;;;;4937507;29;20050;-75
2022/01/23 13:38:21;;;;;;;64.13;30.23;;;5.20;99.90;;;;;;4937399;29;20033;-75
2022/01/23 13:40:56;;;;;;;66.55;33.65;;;5.30;99.90;;;;;;4954858;29;20023;-75
2022/01/23 14:02:33;;;;;;;60.42;30.67;;;5.30;99.90;;;;;;4957611;28;20083;-75
2022/01/23 14:05:19;;;;;;;55.30;28.85;;;5.20;99.90;;;;;;4957909;29;20024;-75
2022/01/23 14:07:57;;;;;;;56.10;27.38;;;5.20;99.90;;;;;;4957406;29;20051;-75
2022/01/23 14:10:32;;;;;;;51.80;26.25;;;5.20;99.90;;;;;;4958293;29;20031;-74
2022/01/23 14:13:15;;;;;;;53.00;26.90;;;5.20;99.90;;;;;;4957976;29;20030;-74
2022/01/23 14:15:49;;;;;;;52.35;26.33;;;5.10;99.90;;;;;;4958003;29;20019;-75
2022/01/23 14:18:24;;;;;;;58.72;27.75;;;5.20;99.90;;;;;;4957944;29;20058;-75
2022/01/23 14:21:02;;;;;;;57.33;28.42;;;5.10;99.90;;;;;;4940166;29;20031;-75
2022/01/23 14:23:28;;;;;;;51.97;25.05;;;5.20;99.90;;;;;;4957783;29;20063;-75
2022/01/23 14:26:00;;;;;;;53.80;26.98;;;5.10;99.90;;;;;;4957479;29;20031;-75
2022/01/23 14:28:38;;;;;;;51.30;25.65;;;5.10;99.90;;;;;;4958021;29;20548;-75
2022/01/23 14:31:19;;;;;;;61.30;26.60;;;5.00;99.90;;;;;;4939822;29;20036;-75
2022/01/23 14:33:49;;;;;;;56.42;26.35;;;5.10;99.90;;;;;;4957686;29;20027;-75
2022/01/23 14:36:24;;;;;;;47.13;22.53;;;5.20;99.90;;;;;;4957365;29;20028;-75
2022/01/23 14:39:10;;;;;;;50.55;24.52;;;5.10;99.90;;;;;;4957902;29;20030;-75
2022/01/23 14:41:42;;;;;;;48.63;22.65;;;4.90;99.90;;;;;;4957525;29;20027;-75
2022/01/23 14:44:35;;;;;;;49.72;23.38;;;4.90;99.90;;;;;;4939672;29;20045;-75
2022/01/23 14:47:00;;;;;;;52.40;25.10;;;4.90;99.90;;;;;;4939102;29;20043;-75
2022/01/23 14:49:29;;;;;;;47.40;21.73;;;4.80;99.90;;;;;;4957106;29;20094;-75
2022/01/23 14:51:57;;;;;;;52.08;24.33;;;4.90;99.90;;;;;;4956998;29;20505;-75
2022/01/23 14:54:25;;;;;;;50.40;23.42;;;4.90;99.90;;;;;;4957215;29;20015;-75
2022/01/23 14:56:52;;;;;;;51.97;22.88;;;4.90;99.90;;;;;;4957356;29;20038;-75
2022/01/23 14:59:17;;;;;;;47.55;23.25;;;4.90;99.90;;;;;;4957190;29;20024;-75
2022/01/23 15:01:45;;;;;;;45.20;21.25;;;4.90;99.90;;;;;;4956857;29;20058;-75
2022/01/23 15:04:12;;;;;;;48.97;22.40;;;4.90;99.90;;;;;;4956662;28;20449;-75
2022/01/23 15:06:46;;;;;;;46.17;21.83;;;4.90;99.90;;;;;;4956508;29;20055;-75
2022/01/23 15:09:13;;;;;;;44.38;22.65;;;4.90;99.90;;;;;;4956710;28;20031;-75
2022/01/23 15:11:39;;;;;;;44.40;21.85;;;4.80;99.90;;;;;;4955792;29;20469;-75
2022/01/23 15:14:07;;;;;;;40.80;20.70;;;4.80;99.90;;;;;;4956681;29;20051;-75
2022/01/23 15:16:33;;;;;;;43.55;19.60;;;4.90;99.90;;;;;;4956699;29;20088;-75
2022/01/23 15:18:59;;;;;;;46.85;20.05;;;4.80;99.90;;;;;;4956813;29;20098;-74
2022/01/23 15:21:25;;;;;;;44.95;19.85;;;4.70;99.90;;;;;;4956505;29;20434;-75
2022/01/23 15:23:55;;;;;;;50.60;23.08;;;4.60;99.90;;;;;;4939206;29;20050;-74
2022/01/23 15:26:25;;;;;;;42.88;21.58;;;4.80;99.90;;;;;;4956682;29;20086;-75
2022/01/23 15:28:51;;;;;;;47.95;21.55;;;4.70;99.90;;;;;;4956367;29;20074;-75
2022/01/23 15:31:16;;;;;;;43.78;19.77;;;4.60;99.90;;;;;;4956240;29;20070;-75
2022/01/23 15:33:42;;;;;;;47.17;21.05;;;4.60;99.90;;;;;;4938990;29;20027;-74
2022/01/23 15:36:08;;;;;;;39.45;18.80;;;4.70;99.90;;;;;;4956183;29;20027;-75
2022/01/23 15:38:36;;;;;;;45.50;20.88;;;4.70;99.90;;;;;;4956184;29;20410;-75
2022/01/23 15:41:02;;;;;;;41.58;18.85;;;4.80;99.90;;;;;;4956125;29;20038;-75
2022/01/23 15:43:28;;;;;;;44.20;20.80;;;4.80;99.90;;;;;;4956365;29;20397;-75
2022/01/23 15:45:54;;;;;;;41.70;19.75;;;4.80;99.90;;;;;;4956009;29;20042;-75
2022/01/23 15:48:20;;;;;;;42.20;20.10;;;4.80;99.90;;;;;;4955971;29;20078;-75
2022/01/23 15:50:46;;;;;;;43.70;19.70;;;4.90;99.90;;;;;;4955845;29;20106;-75
2022/01/23 15:53:12;;;;;;;42.63;18.73;;;5.00;99.90;;;;;;4956173;29;20066;-74
2022/01/23 15:55:37;;;;;;;43.60;20.85;;;5.10;99.90;;;;;;4955866;29;20027;-75
2022/01/23 15:58:04;;;;;;;44.15;19.70;;;5.00;99.90;;;;;;4956067;29;20031;-75
2022/01/23 16:00:31;;;;;;;41.00;20.85;;;5.00;99.90;;;;;;4938612;29;20110;-75
2022/01/23 16:02:57;;;;;;;43.00;19.85;;;5.00;99.90;;;;;;4955683;28;20489;-75
2022/01/23 16:05:23;;;;;;;46.60;21.90;;;5.00;99.90;;;;;;4955762;29;20241;-75
2022/01/23 16:07:49;;;;;;;42.80;20.08;;;4.80;99.90;;;;;;4955315;29;20126;-75
2022/01/23 16:10:14;;;;;;;46.15;20.05;;;4.90;99.90;;;;;;4955796;29;20035;-75
2022/01/23 16:12:42;;;;;;;40.60;19.27;;;5.10;99.90;;;;;;4955568;29;20474;-75
2022/01/23 16:15:10;;;;;;;43.47;20.17;;;5.10;99.90;;;;;;4938298;29;20027;-75
2022/01/23 16:17:36;;;;;;;40.70;19.55;;;5.10;99.90;;;;;;4955800;29;20075;-75
2022/01/23 16:20:03;;;;;;;73.90;39.20;;;4.90;99.90;;;;;;4956025;29;20031;-75
2022/01/23 16:22:29;;;;;;;48.83;24.13;;;5.10;99.90;;;;;;4955251;28;20019;-75
2022/01/23 16:24:55;;;;;;;42.05;21.05;;;5.00;99.90;;;;;;4955703;29;20478;-75
2022/01/23 16:27:21;;;;;;;63.70;30.83;;;5.00;99.90;;;;;;4955402;29;20035;-74